sensor_id;sensor_type;location;lat;lon;timestamp;P1;durP1;ratioP1;P2;durP2;ratioP2
36379;SDS011;22411;53.016;18.632;2024-03-02T00:00:50;75.60;;;37.95;;
36379;SDS011;22411;53.016;18.632;2024-03-02T00:03:37;76.07;;;37.38;;
36379;SDS011;22411;53.016;18.632;2024-03-02T00:06:04;72.38;;;37.25;;
36379;SDS011;22411;53.016;18.632;2024-03-02T00:08:30;78.63;;;38.10;;
36379;SDS011;22411;53.016;18.632;2024-03-02T00:10:59;74.05;;;38.15;;
36379;SDS011;22411;53.016;18.632;2024-03-02T00:13:29;76.72;;;39.38;;
36379;SDS011;22411;53.016;18.632;2024-03-02T00:15:57;73.50;;;39.00;;
36379;SDS011;22411;53.016;18.632;2024-03-02T00:18:27;79.00;;;37.08;;
36379;SDS011;22411;53.016;18.632;2024-03-02T00:20:56;73.05;;;37.20;;
36379;SDS011;22411;53.016;18.632;2024-03-02T00:23:23;72.95;;;36.38;;
36379;SDS011;22411;53.016;18.632;2024-03-02T00:25:51;73.47;;;36.03;;
36379;SDS011;22411;53.016;18.632;2024-03-02T00:31:12;69.93;;;36.85;;
36379;SDS011;22411;53.016;18.632;2024-03-02T00:36:08;66.30;;;35.42;;
36379;SDS011;22411;53.016;18.632;2024-03-02T00:38:43;68.38;;;35.65;;
36379;SDS011;22411;53.016;18.632;2024-03-02T00:41:24;72.97;;;34.58;;
36379;SDS011;22411;53.016;18.632;2024-03-02T00:46:27;70.78;;;35.80;;
36379;SDS011;22411;53.016;18.632;2024-03-02T00:48:56;66.60;;;33.42;;
36379;SDS011;22411;53.016;18.632;2024-03-02T00:51:24;62.47;;;31.17;;
36379;SDS011;22411;53.016;18.632;2024-03-02T00:53:52;71.82;;;35.92;;
36379;SDS011;22411;53.016;18.632;2024-03-02T00:56:21;65.32;;;34.92;;
36379;SDS011;22411;53.016;18.632;2024-03-02T00:58:47;68.22;;;35.67;;
36379;SDS011;22411;53.016;18.632;2024-03-02T01:01:13;65.43;;;31.65;;
36379;SDS011;22411;53.016;18.632;2024-03-02T01:03:39;52.00;;;30.02;;
36379;SDS011;22411;53.016;18.632;2024-03-02T01:06:07;60.20;;;29.98;;
36379;SDS011;22411;53.016;18.632;2024-03-02T01:08:33;57.67;;;31.27;;
36379;SDS011;22411;53.016;18.632;2024-03-02T01:11:00;57.45;;;29.85;;
36379;SDS011;22411;53.016;18.632;2024-03-02T01:13:25;53.47;;;29.75;;
36379;SDS011;22411;53.016;18.632;2024-03-02T01:15:51;55.80;;;29.25;;
36379;SDS011;22411;53.016;18.632;2024-03-02T01:18:18;56.47;;;30.38;;
36379;SDS011;22411;53.016;18.632;2024-03-02T01:20:44;54.10;;;27.52;;
36379;SDS011;22411;53.016;18.632;2024-03-02T01:23:09;58.00;;;29.13;;
36379;SDS011;22411;53.016;18.632;2024-03-02T01:25:35;54.72;;;30.02;;
36379;SDS011;22411;53.016;18.632;2024-03-02T01:28:01;47.78;;;27.10;;
36379;SDS011;22411;53.016;18.632;2024-03-02T01:30:27;51.65;;;29.33;;
36379;SDS011;22411;53.016;18.632;2024-03-02T01:32:53;52.33;;;28.05;;
36379;SDS011;22411;53.016;18.632;2024-03-02T01:35:18;53.83;;;27.90;;
36379;SDS011;22411;53.016;18.632;2024-03-02T01:37:44;54.70;;;28.17;;
36379;SDS011;22411;53.016;18.632;2024-03-02T01:40:10;49.08;;;27.90;;
36379;SDS011;22411;53.016;18.632;2024-03-02T01:42:39;52.38;;;27.42;;
36379;SDS011;22411;53.016;18.632;2024-03-02T01:45:05;52.13;;;28.25;;
36379;SDS011;22411;53.016;18.632;2024-03-02T01:47:31;47.88;;;27.40;;
36379;SDS011;22411;53.016;18.632;2024-03-02T01:49:58;48.42;;;25.95;;
36379;SDS011;22411;53.016;18.632;2024-03-02T01:52:24;48.70;;;28.45;;
36379;SDS011;22411;53.016;18.632;2024-03-02T01:54:50;52.40;;;28.90;;
36379;SDS011;22411;53.016;18.632;2024-03-02T01:57:16;45.88;;;26.27;;
36379;SDS011;22411;53.016;18.632;2024-03-02T01:59:42;48.08;;;27.02;;
36379;SDS011;22411;53.016;18.632;2024-03-02T02:02:08;53.08;;;26.88;;
36379;SDS011;22411;53.016;18.632;2024-03-02T02:04:34;45.10;;;25.55;;
36379;SDS011;22411;53.016;18.632;2024-03-02T02:07:00;51.45;;;27.90;;
36379;SDS011;22411;53.016;18.632;2024-03-02T02:09:26;53.70;;;29.15;;
36379;SDS011;22411;53.016;18.632;2024-03-02T02:11:51;46.85;;;25.77;;
36379;SDS011;22411;53.016;18.632;2024-03-02T02:14:18;44.58;;;25.30;;
36379;SDS011;22411;53.016;18.632;2024-03-02T02:16:43;43.78;;;26.05;;
36379;SDS011;22411;53.016;18.632;2024-03-02T02:19:09;45.53;;;25.25;;
36379;SDS011;22411;53.016;18.632;2024-03-02T02:21:35;46.35;;;27.42;;
36379;SDS011;22411;53.016;18.632;2024-03-02T02:24:01;46.30;;;25.48;;
36379;SDS011;22411;53.016;18.632;2024-03-02T02:26:29;48.30;;;26.67;;
36379;SDS011;22411;53.016;18.632;2024-03-02T02:28:55;44.53;;;26.02;;
36379;SDS011;22411;53.016;18.632;2024-03-02T02:31:20;53.47;;;28.52;;
36379;SDS011;22411;53.016;18.632;2024-03-02T02:33:46;49.38;;;27.90;;
36379;SDS011;22411;53.016;18.632;2024-03-02T02:36:12;54.33;;;29.25;;
36379;SDS011;22411;53.016;18.632;2024-03-02T02:38:40;55.40;;;28.88;;
36379;SDS011;22411;53.016;18.632;2024-03-02T02:41:09;51.47;;;27.00;;
36379;SDS011;22411;53.016;18.632;2024-03-02T02:43:35;48.20;;;26.42;;
36379;SDS011;22411;53.016;18.632;2024-03-02T02:46:00;52.70;;;28.90;;
36379;SDS011;22411;53.016;18.632;2024-03-02T02:48:26;52.30;;;28.38;;
36379;SDS011;22411;53.016;18.632;2024-03-02T02:50:51;54.55;;;29.92;;
36379;SDS011;22411;53.016;18.632;2024-03-02T02:53:18;50.35;;;28.08;;
36379;SDS011;22411;53.016;18.632;2024-03-02T02:55:43;47.40;;;26.60;;
36379;SDS011;22411;53.016;18.632;2024-03-02T02:58:09;51.55;;;27.80;;
36379;SDS011;22411;53.016;18.632;2024-03-02T03:00:35;49.60;;;26.85;;
36379;SDS011;22411;53.016;18.632;2024-03-02T03:03:02;49.40;;;28.48;;
36379;SDS011;22411;53.016;18.632;2024-03-02T03:05:28;46.97;;;27.30;;
36379;SDS011;22411;53.016;18.632;2024-03-02T03:07:53;50.38;;;28.95;;
36379;SDS011;22411;53.016;18.632;2024-03-02T03:10:19;51.50;;;27.33;;
36379;SDS011;22411;53.016;18.632;2024-03-02T03:12:47;47.13;;;26.73;;
36379;SDS011;22411;53.016;18.632;2024-03-02T03:15:13;49.35;;;26.50;;
36379;SDS011;22411;53.016;18.632;2024-03-02T03:17:39;44.40;;;27.55;;
36379;SDS011;22411;53.016;18.632;2024-03-02T03:20:06;43.38;;;25.45;;
36379;SDS011;22411;53.016;18.632;2024-03-02T03:22:35;49.85;;;26.45;;
36379;SDS011;22411;53.016;18.632;2024-03-02T03:25:01;51.45;;;27.20;;
36379;SDS011;22411;53.016;18.632;2024-03-02T03:27:28;45.90;;;26.38;;
36379;SDS011;22411;53.016;18.632;2024-03-02T03:29:54;41.30;;;25.15;;
36379;SDS011;22411;53.016;18.632;2024-03-02T03:32:20;42.35;;;25.90;;
36379;SDS011;22411;53.016;18.632;2024-03-02T03:34:47;42.80;;;25.88;;
36379;SDS011;22411;53.016;18.632;2024-03-02T03:37:13;42.88;;;25.50;;
36379;SDS011;22411;53.016;18.632;2024-03-02T03:39:39;44.58;;;25.55;;
36379;SDS011;22411;53.016;18.632;2024-03-02T03:42:05;46.33;;;27.83;;
36379;SDS011;22411;53.016;18.632;2024-03-02T03:44:32;45.00;;;24.50;;
36379;SDS011;22411;53.016;18.632;2024-03-02T03:46:58;46.53;;;26.10;;
36379;SDS011;22411;53.016;18.632;2024-03-02T03:49:23;44.67;;;25.75;;
36379;SDS011;22411;53.016;18.632;2024-03-02T03:51:49;43.70;;;25.73;;
36379;SDS011;22411;53.016;18.632;2024-03-02T03:54:15;40.30;;;24.92;;
36379;SDS011;22411;53.016;18.632;2024-03-02T03:56:40;44.13;;;26.45;;
36379;SDS011;22411;53.016;18.632;2024-03-02T03:59:06;47.17;;;27.35;;
36379;SDS011;22411;53.016;18.632;2024-03-02T04:01:32;47.03;;;27.40;;
36379;SDS011;22411;53.016;18.632;2024-03-02T04:03:57;46.13;;;27.33;;
36379;SDS011;22411;53.016;18.632;2024-03-02T04:06:23;45.10;;;24.95;;
36379;SDS011;22411;53.016;18.632;2024-03-02T04:08:49;48.55;;;25.90;;
36379;SDS011;22411;53.016;18.632;2024-03-02T04:11:15;42.30;;;25.20;;
36379;SDS011;22411;53.016;18.632;2024-03-02T04:13:41;45.97;;;27.48;;
36379;SDS011;22411;53.016;18.632;2024-03-02T04:16:06;50.03;;;27.30;;
36379;SDS011;22411;53.016;18.632;2024-03-02T04:18:32;48.28;;;28.35;;
36379;SDS011;22411;53.016;18.632;2024-03-02T04:20:58;50.85;;;27.83;;
36379;SDS011;22411;53.016;18.632;2024-03-02T04:23:26;46.13;;;27.20;;
36379;SDS011;22411;53.016;18.632;2024-03-02T04:25:52;46.45;;;26.25;;
36379;SDS011;22411;53.016;18.632;2024-03-02T04:28:18;45.83;;;28.20;;
36379;SDS011;22411;53.016;18.632;2024-03-02T04:30:44;47.63;;;27.17;;
36379;SDS011;22411;53.016;18.632;2024-03-02T04:33:10;48.50;;;27.80;;
36379;SDS011;22411;53.016;18.632;2024-03-02T04:35:36;44.78;;;26.33;;
36379;SDS011;22411;53.016;18.632;2024-03-02T04:38:02;44.17;;;26.60;;
36379;SDS011;22411;53.016;18.632;2024-03-02T04:40:28;45.50;;;28.50;;
36379;SDS011;22411;53.016;18.632;2024-03-02T04:42:53;46.22;;;26.15;;
36379;SDS011;22411;53.016;18.632;2024-03-02T04:45:19;43.00;;;25.77;;
36379;SDS011;22411;53.016;18.632;2024-03-02T04:47:45;42.22;;;26.63;;
36379;SDS011;22411;53.016;18.632;2024-03-02T04:50:11;48.58;;;27.20;;
36379;SDS011;22411;53.016;18.632;2024-03-02T04:52:36;43.17;;;25.02;;
36379;SDS011;22411;53.016;18.632;2024-03-02T04:55:03;49.75;;;27.13;;
36379;SDS011;22411;53.016;18.632;2024-03-02T04:57:35;48.05;;;27.65;;
36379;SDS011;22411;53.016;18.632;2024-03-02T05:00:01;44.10;;;26.70;;
36379;SDS011;22411;53.016;18.632;2024-03-02T05:02:32;49.40;;;29.27;;
36379;SDS011;22411;53.016;18.632;2024-03-02T05:04:58;43.45;;;26.45;;
36379;SDS011;22411;53.016;18.632;2024-03-02T05:07:23;49.10;;;28.10;;
36379;SDS011;22411;53.016;18.632;2024-03-02T05:09:49;49.05;;;27.38;;
36379;SDS011;22411;53.016;18.632;2024-03-02T05:12:15;50.10;;;27.38;;
36379;SDS011;22411;53.016;18.632;2024-03-02T05:14:59;48.67;;;27.63;;
36379;SDS011;22411;53.016;18.632;2024-03-02T05:17:24;45.50;;;27.33;;
36379;SDS011;22411;53.016;18.632;2024-03-02T05:19:50;48.88;;;27.38;;
36379;SDS011;22411;53.016;18.632;2024-03-02T05:22:16;47.78;;;27.45;;
36379;SDS011;22411;53.016;18.632;2024-03-02T05:24:42;46.38;;;27.33;;
36379;SDS011;22411;53.016;18.632;2024-03-02T05:27:07;48.47;;;28.92;;
36379;SDS011;22411;53.016;18.632;2024-03-02T05:29:33;48.78;;;28.10;;
36379;SDS011;22411;53.016;18.632;2024-03-02T05:31:59;43.10;;;26.50;;
36379;SDS011;22411;53.016;18.632;2024-03-02T05:34:25;48.60;;;26.98;;
36379;SDS011;22411;53.016;18.632;2024-03-02T05:36:50;50.50;;;28.23;;
36379;SDS011;22411;53.016;18.632;2024-03-02T05:39:16;48.80;;;27.23;;
36379;SDS011;22411;53.016;18.632;2024-03-02T05:41:42;45.85;;;25.90;;
36379;SDS011;22411;53.016;18.632;2024-03-02T05:44:07;51.03;;;28.77;;
36379;SDS011;22411;53.016;18.632;2024-03-02T05:46:33;52.00;;;31.08;;
36379;SDS011;22411;53.016;18.632;2024-03-02T05:48:59;46.17;;;26.58;;
36379;SDS011;22411;53.016;18.632;2024-03-02T05:51:26;48.15;;;27.60;;
36379;SDS011;22411;53.016;18.632;2024-03-02T05:53:52;49.95;;;28.67;;
36379;SDS011;22411;53.016;18.632;2024-03-02T05:56:17;46.85;;;26.42;;
36379;SDS011;22411;53.016;18.632;2024-03-02T05:58:43;49.67;;;27.73;;
36379;SDS011;22411;53.016;18.632;2024-03-02T06:01:27;48.13;;;27.63;;
36379;SDS011;22411;53.016;18.632;2024-03-02T06:03:56;48.35;;;28.08;;
36379;SDS011;22411;53.016;18.632;2024-03-02T06:06:22;51.25;;;29.65;;
36379;SDS011;22411;53.016;18.632;2024-03-02T06:08:48;47.05;;;28.05;;
36379;SDS011;22411;53.016;18.632;2024-03-02T06:11:14;50.47;;;29.15;;
36379;SDS011;22411;53.016;18.632;2024-03-02T06:13:40;54.20;;;28.80;;
36379;SDS011;22411;53.016;18.632;2024-03-02T06:16:05;48.70;;;27.80;;
36379;SDS011;22411;53.016;18.632;2024-03-02T06:18:31;43.28;;;27.30;;
36379;SDS011;22411;53.016;18.632;2024-03-02T06:20:57;47.22;;;29.05;;
36379;SDS011;22411;53.016;18.632;2024-03-02T06:23:23;47.35;;;27.85;;
36379;SDS011;22411;53.016;18.632;2024-03-02T06:25:48;51.65;;;28.38;;
36379;SDS011;22411;53.016;18.632;2024-03-02T06:28:14;44.78;;;28.00;;
36379;SDS011;22411;53.016;18.632;2024-03-02T06:30:41;50.08;;;28.25;;
36379;SDS011;22411;53.016;18.632;2024-03-02T06:33:08;44.88;;;29.00;;
36379;SDS011;22411;53.016;18.632;2024-03-02T06:35:33;49.83;;;28.55;;
36379;SDS011;22411;53.016;18.632;2024-03-02T06:38:00;42.33;;;26.05;;
36379;SDS011;22411;53.016;18.632;2024-03-02T06:40:26;47.88;;;28.35;;
36379;SDS011;22411;53.016;18.632;2024-03-02T06:42:52;49.65;;;26.55;;
36379;SDS011;22411;53.016;18.632;2024-03-02T06:45:18;45.45;;;26.35;;
36379;SDS011;22411;53.016;18.632;2024-03-02T06:47:44;45.10;;;27.48;;
36379;SDS011;22411;53.016;18.632;2024-03-02T06:50:10;43.33;;;24.95;;
36379;SDS011;22411;53.016;18.632;2024-03-02T06:52:36;46.67;;;25.73;;
36379;SDS011;22411;53.016;18.632;2024-03-02T06:55:01;46.15;;;25.98;;
36379;SDS011;22411;53.016;18.632;2024-03-02T06:57:29;46.13;;;27.40;;
36379;SDS011;22411;53.016;18.632;2024-03-02T06:59:55;42.58;;;26.52;;
36379;SDS011;22411;53.016;18.632;2024-03-02T07:02:24;49.15;;;28.10;;
36379;SDS011;22411;53.016;18.632;2024-03-02T07:04:52;46.30;;;28.23;;
36379;SDS011;22411;53.016;18.632;2024-03-02T07:07:18;42.72;;;26.92;;
36379;SDS011;22411;53.016;18.632;2024-03-02T07:09:44;48.17;;;27.67;;
36379;SDS011;22411;53.016;18.632;2024-03-02T07:12:10;43.15;;;25.55;;
36379;SDS011;22411;53.016;18.632;2024-03-02T07:14:35;51.03;;;27.88;;
36379;SDS011;22411;53.016;18.632;2024-03-02T07:17:37;50.28;;;27.80;;
36379;SDS011;22411;53.016;18.632;2024-03-02T07:20:03;46.95;;;25.52;;
36379;SDS011;22411;53.016;18.632;2024-03-02T07:22:32;44.63;;;25.52;;
36379;SDS011;22411;53.016;18.632;2024-03-02T07:24:58;44.10;;;25.60;;
36379;SDS011;22411;53.016;18.632;2024-03-02T07:27:24;39.95;;;24.65;;
36379;SDS011;22411;53.016;18.632;2024-03-02T07:29:50;43.10;;;25.83;;
36379;SDS011;22411;53.016;18.632;2024-03-02T07:32:15;41.65;;;25.02;;
36379;SDS011;22411;53.016;18.632;2024-03-02T07:34:41;41.22;;;25.63;;
36379;SDS011;22411;53.016;18.632;2024-03-02T07:37:07;39.90;;;23.33;;
36379;SDS011;22411;53.016;18.632;2024-03-02T07:39:33;45.40;;;25.08;;
36379;SDS011;22411;53.016;18.632;2024-03-02T07:41:59;45.75;;;25.60;;
36379;SDS011;22411;53.016;18.632;2024-03-02T07:44:25;42.33;;;25.45;;
36379;SDS011;22411;53.016;18.632;2024-03-02T07:46:51;44.65;;;24.10;;
36379;SDS011;22411;53.016;18.632;2024-03-02T07:49:16;42.10;;;25.23;;
36379;SDS011;22411;53.016;18.632;2024-03-02T07:51:43;43.95;;;24.58;;
36379;SDS011;22411;53.016;18.632;2024-03-02T07:54:09;38.53;;;23.85;;
36379;SDS011;22411;53.016;18.632;2024-03-02T07:56:35;40.78;;;25.02;;
36379;SDS011;22411;53.016;18.632;2024-03-02T07:59:01;41.20;;;23.45;;
36379;SDS011;22411;53.016;18.632;2024-03-02T08:01:28;40.60;;;24.25;;
36379;SDS011;22411;53.016;18.632;2024-03-02T08:03:56;39.17;;;23.90;;
36379;SDS011;22411;53.016;18.632;2024-03-02T08:06:27;41.20;;;23.77;;
36379;SDS011;22411;53.016;18.632;2024-03-02T08:08:53;37.72;;;24.00;;
36379;SDS011;22411;53.016;18.632;2024-03-02T08:11:20;38.08;;;24.17;;
36379;SDS011;22411;53.016;18.632;2024-03-02T08:13:47;41.50;;;24.83;;
36379;SDS011;22411;53.016;18.632;2024-03-02T08:16:14;39.25;;;24.33;;
36379;SDS011;22411;53.016;18.632;2024-03-02T08:18:40;38.38;;;23.05;;
36379;SDS011;22411;53.016;18.632;2024-03-02T08:21:06;37.47;;;22.55;;
36379;SDS011;22411;53.016;18.632;2024-03-02T08:23:33;42.40;;;24.27;;
36379;SDS011;22411;53.016;18.632;2024-03-02T08:26:00;41.05;;;25.13;;
36379;SDS011;22411;53.016;18.632;2024-03-02T08:28:25;41.90;;;23.80;;
36379;SDS011;22411;53.016;18.632;2024-03-02T08:30:51;36.85;;;23.38;;
36379;SDS011;22411;53.016;18.632;2024-03-02T08:33:17;37.90;;;22.65;;
36379;SDS011;22411;53.016;18.632;2024-03-02T08:35:43;38.67;;;23.02;;
36379;SDS011;22411;53.016;18.632;2024-03-02T08:38:08;38.20;;;24.02;;
36379;SDS011;22411;53.016;18.632;2024-03-02T08:40:34;43.53;;;24.38;;
36379;SDS011;22411;53.016;18.632;2024-03-02T08:43:00;38.08;;;22.55;;
36379;SDS011;22411;53.016;18.632;2024-03-02T08:45:26;35.63;;;23.15;;
36379;SDS011;22411;53.016;18.632;2024-03-02T08:47:51;41.75;;;24.67;;
36379;SDS011;22411;53.016;18.632;2024-03-02T08:50:18;33.72;;;22.00;;
36379;SDS011;22411;53.016;18.632;2024-03-02T08:52:43;38.67;;;23.00;;
36379;SDS011;22411;53.016;18.632;2024-03-02T08:55:09;47.97;;;30.30;;
36379;SDS011;22411;53.016;18.632;2024-03-02T08:57:36;51.28;;;34.80;;
36379;SDS011;22411;53.016;18.632;2024-03-02T09:00:02;43.88;;;29.52;;
36379;SDS011;22411;53.016;18.632;2024-03-02T09:02:30;63.70;;;48.35;;
36379;SDS011;22411;53.016;18.632;2024-03-02T09:04:57;55.40;;;35.60;;
36379;SDS011;22411;53.016;18.632;2024-03-02T09:07:22;68.43;;;52.75;;
36379;SDS011;22411;53.016;18.632;2024-03-02T09:09:49;62.25;;;45.25;;
36379;SDS011;22411;53.016;18.632;2024-03-02T09:12:14;71.07;;;51.40;;
36379;SDS011;22411;53.016;18.632;2024-03-02T09:14:41;67.75;;;55.55;;
36379;SDS011;22411;53.016;18.632;2024-03-02T09:17:07;111.95;;;81.20;;
36379;SDS011;22411;53.016;18.632;2024-03-02T09:19:33;79.80;;;65.38;;
36379;SDS011;22411;53.016;18.632;2024-03-02T09:21:59;57.15;;;40.10;;
36379;SDS011;22411;53.016;18.632;2024-03-02T09:24:25;54.33;;;41.97;;
36379;SDS011;22411;53.016;18.632;2024-03-02T09:26:51;38.83;;;27.55;;
36379;SDS011;22411;53.016;18.632;2024-03-02T09:29:16;40.40;;;28.58;;
36379;SDS011;22411;53.016;18.632;2024-03-02T09:31:42;43.28;;;30.42;;
36379;SDS011;22411;53.016;18.632;2024-03-02T09:34:09;38.58;;;28.17;;
36379;SDS011;22411;53.016;18.632;2024-03-02T09:36:34;39.33;;;26.40;;
36379;SDS011;22411;53.016;18.632;2024-03-02T09:39:00;47.75;;;35.47;;
36379;SDS011;22411;53.016;18.632;2024-03-02T09:41:26;46.05;;;32.70;;
36379;SDS011;22411;53.016;18.632;2024-03-02T09:43:52;35.15;;;23.27;;
36379;SDS011;22411;53.016;18.632;2024-03-02T09:46:17;37.47;;;23.15;;
36379;SDS011;22411;53.016;18.632;2024-03-02T09:48:44;41.10;;;28.35;;
36379;SDS011;22411;53.016;18.632;2024-03-02T09:51:10;35.58;;;21.83;;
36379;SDS011;22411;53.016;18.632;2024-03-02T09:53:37;36.33;;;25.20;;
36379;SDS011;22411;53.016;18.632;2024-03-02T09:56:03;45.63;;;35.42;;
36379;SDS011;22411;53.016;18.632;2024-03-02T09:58:30;57.58;;;42.47;;
36379;SDS011;22411;53.016;18.632;2024-03-02T10:00:56;37.85;;;24.98;;
36379;SDS011;22411;53.016;18.632;2024-03-02T10:03:22;38.35;;;25.13;;
36379;SDS011;22411;53.016;18.632;2024-03-02T10:05:52;34.08;;;20.75;;
36379;SDS011;22411;53.016;18.632;2024-03-02T10:08:18;34.08;;;20.50;;
36379;SDS011;22411;53.016;18.632;2024-03-02T10:10:43;32.10;;;21.67;;
36379;SDS011;22411;53.016;18.632;2024-03-02T10:13:10;33.70;;;21.92;;
36379;SDS011;22411;53.016;18.632;2024-03-02T10:15:37;37.88;;;23.20;;
36379;SDS011;22411;53.016;18.632;2024-03-02T10:18:09;33.40;;;21.60;;
36379;SDS011;22411;53.016;18.632;2024-03-02T10:20:39;30.95;;;20.50;;
36379;SDS011;22411;53.016;18.632;2024-03-02T10:23:12;33.63;;;21.33;;
36379;SDS011;22411;53.016;18.632;2024-03-02T10:25:39;36.50;;;23.00;;
36379;SDS011;22411;53.016;18.632;2024-03-02T10:28:06;34.78;;;23.48;;
36379;SDS011;22411;53.016;18.632;2024-03-02T10:30:32;42.70;;;24.83;;
36379;SDS011;22411;53.016;18.632;2024-03-02T10:32:59;40.05;;;23.85;;
36379;SDS011;22411;53.016;18.632;2024-03-02T10:35:26;35.10;;;22.35;;
36379;SDS011;22411;53.016;18.632;2024-03-02T10:37:52;35.65;;;22.52;;
36379;SDS011;22411;53.016;18.632;2024-03-02T10:40:22;37.30;;;25.08;;
36379;SDS011;22411;53.016;18.632;2024-03-02T10:42:49;35.53;;;23.30;;
36379;SDS011;22411;53.016;18.632;2024-03-02T10:45:19;35.88;;;23.88;;
36379;SDS011;22411;53.016;18.632;2024-03-02T10:47:48;41.38;;;25.13;;
36379;SDS011;22411;53.016;18.632;2024-03-02T10:50:14;40.40;;;26.20;;
36379;SDS011;22411;53.016;18.632;2024-03-02T10:52:40;40.38;;;24.40;;
36379;SDS011;22411;53.016;18.632;2024-03-02T10:55:06;37.75;;;23.58;;
36379;SDS011;22411;53.016;18.632;2024-03-02T10:57:53;42.78;;;25.05;;
36379;SDS011;22411;53.016;18.632;2024-03-02T11:00:21;45.47;;;27.33;;
36379;SDS011;22411;53.016;18.632;2024-03-02T11:02:58;39.35;;;25.92;;
36379;SDS011;22411;53.016;18.632;2024-03-02T11:05:36;39.30;;;25.88;;
36379;SDS011;22411;53.016;18.632;2024-03-02T11:08:07;36.47;;;24.48;;
36379;SDS011;22411;53.016;18.632;2024-03-02T11:10:39;37.35;;;24.92;;
36379;SDS011;22411;53.016;18.632;2024-03-02T11:13:13;36.45;;;24.23;;
36379;SDS011;22411;53.016;18.632;2024-03-02T11:15:40;40.47;;;24.27;;
36379;SDS011;22411;53.016;18.632;2024-03-02T11:18:09;36.80;;;25.40;;
36379;SDS011;22411;53.016;18.632;2024-03-02T11:20:39;37.13;;;22.95;;
36379;SDS011;22411;53.016;18.632;2024-03-02T11:23:07;35.58;;;23.48;;
36379;SDS011;22411;53.016;18.632;2024-03-02T11:25:36;35.03;;;23.52;;
36379;SDS011;22411;53.016;18.632;2024-03-02T11:28:02;36.08;;;23.42;;
36379;SDS011;22411;53.016;18.632;2024-03-02T11:30:48;38.00;;;23.33;;
36379;SDS011;22411;53.016;18.632;2024-03-02T11:33:14;35.35;;;22.83;;
36379;SDS011;22411;53.016;18.632;2024-03-02T11:35:48;34.38;;;22.38;;
36379;SDS011;22411;53.016;18.632;2024-03-02T11:38:15;38.30;;;24.20;;
36379;SDS011;22411;53.016;18.632;2024-03-02T11:40:40;34.83;;;23.98;;
36379;SDS011;22411;53.016;18.632;2024-03-02T11:43:07;32.78;;;22.90;;
36379;SDS011;22411;53.016;18.632;2024-03-02T11:45:36;34.03;;;23.98;;
36379;SDS011;22411;53.016;18.632;2024-03-02T11:48:05;32.78;;;23.67;;
36379;SDS011;22411;53.016;18.632;2024-03-02T11:53:07;34.33;;;23.13;;
36379;SDS011;22411;53.016;18.632;2024-03-02T11:55:38;32.38;;;23.00;;
36379;SDS011;22411;53.016;18.632;2024-03-02T11:58:05;40.35;;;26.27;;
36379;SDS011;22411;53.016;18.632;2024-03-02T12:00:31;37.65;;;25.00;;
36379;SDS011;22411;53.016;18.632;2024-03-02T12:03:01;32.95;;;22.92;;
36379;SDS011;22411;53.016;18.632;2024-03-02T12:05:29;40.90;;;25.95;;
36379;SDS011;22411;53.016;18.632;2024-03-02T12:07:58;38.53;;;25.42;;
36379;SDS011;22411;53.016;18.632;2024-03-02T12:10:25;34.47;;;23.95;;
36379;SDS011;22411;53.016;18.632;2024-03-02T12:13:13;34.45;;;23.67;;
36379;SDS011;22411;53.016;18.632;2024-03-02T12:15:38;36.83;;;23.85;;
36379;SDS011;22411;53.016;18.632;2024-03-02T12:18:05;38.67;;;25.17;;
36379;SDS011;22411;53.016;18.632;2024-03-02T12:20:31;40.53;;;26.60;;
36379;SDS011;22411;53.016;18.632;2024-03-02T12:22:59;39.05;;;23.98;;
36379;SDS011;22411;53.016;18.632;2024-03-02T12:25:25;30.55;;;22.30;;
36379;SDS011;22411;53.016;18.632;2024-03-02T12:27:53;34.60;;;22.20;;
36379;SDS011;22411;53.016;18.632;2024-03-02T12:30:20;35.97;;;23.60;;
36379;SDS011;22411;53.016;18.632;2024-03-02T12:32:47;39.85;;;26.10;;
36379;SDS011;22411;53.016;18.632;2024-03-02T12:35:14;36.88;;;24.23;;
36379;SDS011;22411;53.016;18.632;2024-03-02T12:37:46;35.15;;;22.70;;
36379;SDS011;22411;53.016;18.632;2024-03-02T12:40:13;31.88;;;22.92;;
36379;SDS011;22411;53.016;18.632;2024-03-02T12:42:40;36.38;;;23.33;;
36379;SDS011;22411;53.016;18.632;2024-03-02T12:45:10;33.92;;;23.30;;
36379;SDS011;22411;53.016;18.632;2024-03-02T12:47:36;33.80;;;22.27;;
36379;SDS011;22411;53.016;18.632;2024-03-02T12:50:05;35.08;;;22.83;;
36379;SDS011;22411;53.016;18.632;2024-03-02T12:52:32;61.70;;;38.85;;
36379;SDS011;22411;53.016;18.632;2024-03-02T12:55:01;42.25;;;28.40;;
36379;SDS011;22411;53.016;18.632;2024-03-02T12:57:30;34.92;;;24.77;;
36379;SDS011;22411;53.016;18.632;2024-03-02T13:00:03;37.30;;;26.42;;
36379;SDS011;22411;53.016;18.632;2024-03-02T13:02:41;35.28;;;23.23;;
36379;SDS011;22411;53.016;18.632;2024-03-02T13:05:07;38.80;;;25.77;;
36379;SDS011;22411;53.016;18.632;2024-03-02T13:07:37;41.88;;;28.52;;
36379;SDS011;22411;53.016;18.632;2024-03-02T13:10:04;40.63;;;27.13;;
36379;SDS011;22411;53.016;18.632;2024-03-02T13:12:31;42.15;;;28.25;;
36379;SDS011;22411;53.016;18.632;2024-03-02T13:14:58;61.45;;;37.97;;
36379;SDS011;22411;53.016;18.632;2024-03-02T13:17:28;51.08;;;33.10;;
36379;SDS011;22411;53.016;18.632;2024-03-02T13:19:57;41.00;;;28.65;;
36379;SDS011;22411;53.016;18.632;2024-03-02T13:22:24;38.58;;;24.58;;
36379;SDS011;22411;53.016;18.632;2024-03-02T13:24:51;39.63;;;27.33;;
36379;SDS011;22411;53.016;18.632;2024-03-02T13:27:19;49.33;;;33.40;;
36379;SDS011;22411;53.016;18.632;2024-03-02T13:29:47;48.28;;;29.27;;
36379;SDS011;22411;53.016;18.632;2024-03-02T13:32:14;53.13;;;33.13;;
36379;SDS011;22411;53.016;18.632;2024-03-02T13:34:40;50.53;;;29.75;;
36379;SDS011;22411;53.016;18.632;2024-03-02T13:37:07;63.88;;;37.75;;
36379;SDS011;22411;53.016;18.632;2024-03-02T13:39:33;71.72;;;39.40;;
36379;SDS011;22411;53.016;18.632;2024-03-02T13:42:13;62.65;;;36.50;;
36379;SDS011;22411;53.016;18.632;2024-03-02T13:44:40;45.17;;;30.50;;
36379;SDS011;22411;53.016;18.632;2024-03-02T13:47:11;40.42;;;25.38;;
36379;SDS011;22411;53.016;18.632;2024-03-02T13:49:36;69.53;;;41.13;;
36379;SDS011;22411;53.016;18.632;2024-03-02T13:52:04;86.90;;;43.50;;
36379;SDS011;22411;53.016;18.632;2024-03-02T13:54:39;85.10;;;44.90;;
36379;SDS011;22411;53.016;18.632;2024-03-02T13:57:05;63.70;;;37.10;;
36379;SDS011;22411;53.016;18.632;2024-03-02T13:59:32;53.40;;;32.50;;
36379;SDS011;22411;53.016;18.632;2024-03-02T14:02:01;47.47;;;30.67;;
36379;SDS011;22411;53.016;18.632;2024-03-02T14:04:27;37.67;;;24.63;;
36379;SDS011;22411;53.016;18.632;2024-03-02T14:06:53;50.10;;;33.33;;
36379;SDS011;22411;53.016;18.632;2024-03-02T14:09:18;47.30;;;30.17;;
36379;SDS011;22411;53.016;18.632;2024-03-02T14:11:46;44.15;;;26.23;;
36379;SDS011;22411;53.016;18.632;2024-03-02T14:14:11;45.10;;;29.13;;
36379;SDS011;22411;53.016;18.632;2024-03-02T14:16:37;44.15;;;28.65;;
36379;SDS011;22411;53.016;18.632;2024-03-02T14:19:02;52.33;;;32.78;;